createdAt,value
2024-02-06T00:00:04.254Z,76
2024-02-06T00:01:00.712Z,76
2024-02-06T00:02:00.765Z,76
2024-02-06T00:06:00.834Z,76
2024-02-06T00:07:00.805Z,76
2024-02-06T00:08:01.059Z,77
2024-02-06T00:09:00.699Z,77
2024-02-06T00:10:04.317Z,77
2024-02-06T00:11:00.762Z,77
2024-02-06T00:12:00.816Z,77
2024-02-06T00:13:00.761Z,77
2024-02-06T00:14:00.810Z,77
2024-02-06T00:15:03.707Z,77
2024-02-06T00:16:00.952Z,77
2024-02-06T00:17:00.789Z,77
2024-02-06T00:18:00.886Z,77
2024-02-06T00:19:00.883Z,77
2024-02-06T00:20:04.190Z,77
2024-02-06T00:21:00.818Z,77
2024-02-06T00:22:00.942Z,77
2024-02-06T00:23:00.815Z,77
2024-02-06T00:24:00.946Z,77
2024-02-06T00:25:03.850Z,77
2024-02-06T00:26:00.921Z,77
2024-02-06T00:27:00.888Z,77
2024-02-06T00:28:01.000Z,77
2024-02-06T00:29:00.860Z,77
2024-02-06T00:30:04.194Z,77
2024-02-06T00:31:00.945Z,77
2024-02-06T00:32:01.007Z,77
2024-02-06T00:33:00.957Z,77
2024-02-06T00:34:01.252Z,77
2024-02-06T00:35:03.841Z,77
2024-02-06T00:36:01.008Z,77
2024-02-06T00:37:01.056Z,77
2024-02-06T00:38:01.059Z,77
2024-02-06T00:39:01.029Z,77
2024-02-06T00:40:04.472Z,77
2024-02-06T00:41:01.014Z,77
2024-02-06T00:42:01.107Z,77
2024-02-06T00:43:01.081Z,76
2024-02-06T00:44:01.140Z,76
2024-02-06T00:45:03.843Z,76
2024-02-06T00:46:01.180Z,76
2024-02-06T00:47:01.089Z,76
2024-02-06T00:48:01.388Z,76
2024-02-06T00:49:01.329Z,75
2024-02-06T00:50:06.661Z,75
2024-02-06T00:51:01.160Z,75
2024-02-06T00:52:01.251Z,75
2024-02-06T00:53:01.095Z,75
2024-02-06T00:54:01.194Z,75
2024-02-06T00:55:04.262Z,75
2024-02-06T00:56:01.185Z,75
2024-02-06T00:57:01.139Z,75
2024-02-06T00:58:01.300Z,75
2024-02-06T00:59:01.165Z,75
2024-02-06T01:00:04.676Z,75
2024-02-06T01:01:00.271Z,75
2024-02-06T01:02:00.398Z,75
2024-02-06T01:03:00.201Z,75
2024-02-06T01:04:00.420Z,75
2024-02-06T01:05:03.261Z,75
2024-02-06T01:06:00.337Z,75
2024-02-06T01:07:00.339Z,75
2024-02-06T01:08:00.435Z,75
2024-02-06T01:09:00.254Z,75
2024-02-06T01:10:03.821Z,75
2024-02-06T01:11:00.288Z,75
2024-02-06T01:12:00.381Z,75
2024-02-06T01:13:00.344Z,75
2024-02-06T01:14:00.460Z,74
2024-02-06T01:15:03.238Z,74
2024-02-06T01:16:00.493Z,74
2024-02-06T01:17:00.356Z,74
2024-02-06T01:18:00.459Z,74
2024-02-06T01:19:00.403Z,74
2024-02-06T01:20:03.975Z,74
2024-02-06T01:21:00.404Z,74
2024-02-06T01:22:00.531Z,74
2024-02-06T01:23:00.401Z,74
2024-02-06T01:24:00.477Z,74
2024-02-06T01:25:03.497Z,74
2024-02-06T01:26:00.499Z,74
2024-02-06T01:27:00.429Z,74
2024-02-06T01:28:00.554Z,74
2024-02-06T01:29:00.415Z,74
2024-02-06T01:30:04.403Z,74
2024-02-06T01:31:00.521Z,74
2024-02-06T01:32:00.567Z,74
2024-02-06T01:33:00.621Z,74
2024-02-06T01:34:00.781Z,74
2024-02-06T01:35:03.373Z,74
2024-02-06T01:36:00.603Z,74
2024-02-06T01:37:00.544Z,73
2024-02-06T01:38:00.569Z,73
2024-02-06T01:39:00.524Z,73
2024-02-06T01:40:03.964Z,73
2024-02-06T01:41:00.577Z,73
2024-02-06T01:42:00.632Z,73
2024-02-06T01:43:00.702Z,73
2024-02-06T01:44:00.638Z,73
2024-02-06T01:45:04.188Z,73
2024-02-06T01:46:00.746Z,73
2024-02-06T01:47:00.691Z,73
2024-02-06T01:48:00.776Z,73
2024-02-06T01:49:00.688Z,73
2024-02-06T01:50:04.001Z,73
2024-02-06T01:51:00.707Z,73
2024-02-06T01:52:00.760Z,73
2024-02-06T01:53:00.713Z,73
2024-02-06T01:54:00.728Z,73
2024-02-06T01:55:03.874Z,73
2024-02-06T01:56:00.765Z,73
2024-02-06T01:57:00.747Z,73
2024-02-06T01:58:00.827Z,73
2024-02-06T01:59:00.732Z,73
2024-02-06T02:00:04.086Z,73
2024-02-06T02:01:00.966Z,73
2024-02-06T02:02:00.978Z,73
2024-02-06T02:03:00.771Z,73
2024-02-06T02:04:00.936Z,73
2024-02-06T02:05:03.763Z,73
2024-02-06T02:06:01.029Z,73
2024-02-06T02:07:00.922Z,73
2024-02-06T02:08:00.866Z,73
2024-02-06T02:09:00.830Z,73
2024-02-06T02:10:04.132Z,73
2024-02-06T02:11:00.824Z,73
2024-02-06T02:12:00.960Z,73
2024-02-06T02:13:00.873Z,73
2024-02-06T02:14:00.924Z,73
2024-02-06T02:15:03.699Z,73
2024-02-06T02:16:03.592Z,73
2024-02-06T02:17:00.894Z,73
2024-02-06T02:18:01.196Z,73
2024-02-06T02:19:00.989Z,73
2024-02-06T02:20:04.446Z,73
2024-02-06T02:21:00.919Z,73
2024-02-06T02:22:01.010Z,73
2024-02-06T02:23:00.954Z,73
2024-02-06T02:24:00.996Z,73
2024-02-06T02:25:03.917Z,73
2024-02-06T02:26:01.064Z,73
2024-02-06T02:27:01.016Z,73
2024-02-06T02:28:01.106Z,73
2024-02-06T02:29:01.017Z,73
2024-02-06T02:30:04.249Z,73
2024-02-06T02:31:01.068Z,73
2024-02-06T02:32:01.088Z,73
2024-02-06T02:33:01.071Z,73
2024-02-06T02:34:01.171Z,73
2024-02-06T02:35:03.990Z,73
2024-02-06T02:36:01.141Z,73
2024-02-06T02:37:01.074Z,73
2024-02-06T02:38:01.116Z,73
2024-02-06T02:39:01.098Z,73
2024-02-06T02:40:05.081Z,73
2024-02-06T02:41:01.132Z,73
2024-02-06T02:42:01.190Z,73
2024-02-06T02:43:01.180Z,72
2024-02-06T02:44:01.210Z,72
2024-02-06T02:45:04.017Z,72
2024-02-06T02:46:01.262Z,72
2024-02-06T02:47:01.133Z,73
2024-02-06T02:48:01.364Z,73
2024-02-06T02:49:01.313Z,73
2024-02-06T02:50:04.439Z,72
2024-02-06T02:51:00.214Z,72
2024-02-06T02:52:00.648Z,72
2024-02-06T02:53:00.221Z,72
2024-02-06T02:54:00.555Z,72
2024-02-06T02:55:03.108Z,72
2024-02-06T02:56:00.730Z,72
2024-02-06T02:57:00.289Z,72
2024-02-06T02:58:00.809Z,72
2024-02-06T02:59:00.264Z,72
2024-02-06T03:00:05.245Z,72
2024-02-06T03:01:00.349Z,72
2024-02-06T03:02:01.082Z,72
2024-02-06T03:03:00.358Z,72
2024-02-06T03:04:01.050Z,72
2024-02-06T03:05:03.308Z,72
2024-02-06T03:06:00.971Z,72
2024-02-06T03:07:00.364Z,72
2024-02-06T03:08:01.201Z,72
2024-02-06T03:09:02.482Z,72
2024-02-06T03:10:03.873Z,72
2024-02-06T03:11:00.438Z,72
2024-02-06T03:12:01.160Z,72
2024-02-06T03:13:00.467Z,72
2024-02-06T03:14:01.300Z,72
2024-02-06T03:15:03.201Z,72
2024-02-06T03:16:01.465Z,72
2024-02-06T03:17:00.557Z,72
2024-02-06T03:18:01.209Z,72
2024-02-06T03:19:00.538Z,72
2024-02-06T03:20:04.061Z,72
2024-02-06T03:21:00.514Z,72
2024-02-06T03:22:00.576Z,72
2024-02-06T03:23:00.459Z,72
2024-02-06T03:24:00.573Z,72
2024-02-06T03:25:03.479Z,72
2024-02-06T03:26:00.650Z,72
2024-02-06T03:27:00.583Z,72
2024-02-06T03:28:00.592Z,72
2024-02-06T03:29:00.550Z,72
2024-02-06T03:30:03.930Z,72
2024-02-06T03:31:00.589Z,72
2024-02-06T03:32:00.631Z,72
2024-02-06T03:33:00.640Z,72
2024-02-06T03:34:00.815Z,72
2024-02-06T03:35:04.696Z,72
2024-02-06T03:36:00.730Z,72
2024-02-06T03:37:00.688Z,72
2024-02-06T03:38:00.709Z,72
2024-02-06T03:39:00.627Z,72
2024-02-06T03:40:03.845Z,72
2024-02-06T03:41:00.704Z,72
2024-02-06T03:42:00.751Z,72
2024-02-06T03:43:00.746Z,72
2024-02-06T03:44:00.801Z,72
2024-02-06T03:45:03.839Z,72
2024-02-06T03:46:00.831Z,72
2024-02-06T03:47:00.690Z,72
2024-02-06T03:48:00.839Z,72
2024-02-06T03:49:00.822Z,72
2024-02-06T03:50:04.191Z,72
2024-02-06T03:51:00.761Z,72
2024-02-06T03:52:00.949Z,72
2024-02-06T03:53:00.799Z,72
2024-02-06T03:54:00.828Z,72
2024-02-06T03:55:03.837Z,72
2024-02-06T03:56:00.861Z,72
2024-02-06T03:57:00.778Z,72
2024-02-06T03:58:00.904Z,72
2024-02-06T03:59:00.785Z,72
2024-02-06T04:00:05.374Z,72
2024-02-06T04:01:00.901Z,72
2024-02-06T04:02:01.023Z,72
2024-02-06T04:03:00.930Z,72
2024-02-06T04:04:00.960Z,72
2024-02-06T04:05:03.820Z,72
2024-02-06T04:06:00.977Z,73
2024-02-06T04:07:00.940Z,73
2024-02-06T04:08:01.012Z,73
2024-02-06T04:09:00.930Z,72
2024-02-06T04:10:04.372Z,72
2024-02-06T04:11:00.885Z,72
2024-02-06T04:12:01.001Z,72
2024-02-06T04:13:00.934Z,72
2024-02-06T04:14:01.007Z,72
2024-02-06T04:15:03.829Z,72
2024-02-06T04:16:01.108Z,72
2024-02-06T04:17:00.976Z,72
2024-02-06T04:18:01.142Z,72
2024-02-06T04:19:01.222Z,72
2024-02-06T04:20:04.389Z,72
2024-02-06T04:21:00.996Z,72
2024-02-06T04:22:01.060Z,72
2024-02-06T04:23:00.986Z,72
2024-02-06T04:24:01.118Z,72
2024-02-06T04:25:03.989Z,72
2024-02-06T04:26:01.134Z,72
2024-02-06T04:27:01.071Z,72
2024-02-06T04:28:01.216Z,72
2024-02-06T04:29:01.067Z,72
2024-02-06T04:30:05.382Z,72
2024-02-06T04:31:01.163Z,72
2024-02-06T04:32:01.187Z,72
2024-02-06T04:33:01.193Z,72
2024-02-06T04:34:01.351Z,72
2024-02-06T04:35:04.247Z,72
2024-02-06T04:36:01.227Z,72
2024-02-06T04:37:01.204Z,72
2024-02-06T04:38:01.210Z,72
2024-02-06T04:39:01.155Z,72
2024-02-06T04:40:04.543Z,72
2024-02-06T04:41:01.217Z,72
2024-02-06T04:42:00.249Z,72
2024-02-06T04:43:00.264Z,72
2024-02-06T04:44:00.303Z,72
2024-02-06T04:45:03.134Z,72
2024-02-06T04:46:00.368Z,72
2024-02-06T04:47:00.351Z,71
2024-02-06T04:48:00.345Z,71
2024-02-06T04:49:00.292Z,72
2024-02-06T04:50:03.807Z,72
2024-02-06T04:51:00.295Z,72
2024-02-06T04:52:00.356Z,72
2024-02-06T04:53:00.281Z,72
2024-02-06T04:54:00.387Z,72
2024-02-06T04:55:03.297Z,72
2024-02-06T04:56:00.440Z,72
2024-02-06T04:57:00.343Z,72
2024-02-06T04:58:00.441Z,72
2024-02-06T04:59:00.363Z,72
2024-02-06T05:00:03.806Z,72
2024-02-06T05:01:00.427Z,71
2024-02-06T05:02:00.559Z,71
2024-02-06T05:03:00.396Z,71
2024-02-06T05:04:00.567Z,71
2024-02-06T05:05:03.481Z,71
2024-02-06T05:06:00.544Z,71
2024-02-06T05:07:00.522Z,71
2024-02-06T05:08:00.721Z,71
2024-02-06T05:09:00.471Z,72
2024-02-06T05:10:04.117Z,72
2024-02-06T05:11:00.502Z,72
2024-02-06T05:12:00.622Z,72
2024-02-06T05:13:00.571Z,72
2024-02-06T05:14:00.583Z,72
2024-02-06T05:15:03.404Z,71
2024-02-06T05:16:00.637Z,71
2024-02-06T05:17:00.589Z,71
2024-02-06T05:18:00.710Z,71
2024-02-06T05:19:00.769Z,71
2024-02-06T05:20:03.936Z,72
2024-02-06T05:21:00.557Z,72
2024-02-06T05:22:00.777Z,72
2024-02-06T05:23:00.582Z,72
2024-02-06T05:24:00.692Z,72
2024-02-06T05:25:04.318Z,72
2024-02-06T05:26:00.715Z,72
2024-02-06T05:27:00.640Z,72
2024-02-06T05:28:00.833Z,72
2024-02-06T05:29:00.663Z,72
2024-02-06T05:30:03.974Z,72
2024-02-06T05:31:00.744Z,72
2024-02-06T05:32:03.927Z,72
2024-02-06T05:33:00.722Z,72
2024-02-06T05:34:00.835Z,72
2024-02-06T05:35:03.796Z,72
2024-02-06T05:36:00.801Z,72
2024-02-06T05:37:00.781Z,72
2024-02-06T05:38:00.785Z,72
2024-02-06T05:39:00.763Z,72
2024-02-06T05:40:04.178Z,72
2024-02-06T05:41:00.763Z,72
2024-02-06T05:42:00.847Z,72
2024-02-06T05:43:00.805Z,72
2024-02-06T05:44:00.836Z,72
2024-02-06T05:45:03.657Z,72
2024-02-06T05:46:00.855Z,72
2024-02-06T05:47:00.815Z,72
2024-02-06T05:48:01.658Z,72
2024-02-06T05:49:01.040Z,72
2024-02-06T05:50:04.206Z,72
2024-02-06T05:51:00.820Z,72
2024-02-06T05:52:00.903Z,72
2024-02-06T05:53:00.819Z,72
2024-02-06T05:54:00.909Z,72
2024-02-06T05:55:03.836Z,72
2024-02-06T05:56:01.089Z,72
2024-02-06T05:57:00.872Z,72
2024-02-06T05:58:01.017Z,72
2024-02-06T05:59:03.748Z,72
2024-02-06T06:00:04.423Z,72
2024-02-06T06:01:01.043Z,72
2024-02-06T06:02:01.105Z,72
2024-02-06T06:03:00.929Z,72
2024-02-06T06:04:01.260Z,72
2024-02-06T06:05:04.294Z,72
2024-02-06T06:06:01.241Z,72
2024-02-06T06:07:01.169Z,72
2024-02-06T06:08:01.091Z,72
2024-02-06T06:09:01.001Z,72
2024-02-06T06:10:04.496Z,72
2024-02-06T06:11:01.045Z,72
2024-02-06T06:12:01.150Z,72
2024-02-06T06:13:01.075Z,72
2024-02-06T06:14:01.141Z,72
2024-02-06T06:15:04.151Z,72
2024-02-06T06:16:01.248Z,72
2024-02-06T06:17:01.088Z,72
2024-02-06T06:18:01.219Z,72
2024-02-06T06:19:01.190Z,72
2024-02-06T06:20:05.120Z,72
2024-02-06T06:21:01.147Z,72
2024-02-06T06:22:02.894Z,72
2024-02-06T06:23:01.139Z,72
2024-02-06T06:24:01.353Z,72
2024-02-06T06:25:04.230Z,72
2024-02-06T06:26:01.227Z,72
2024-02-06T06:27:00.181Z,72
2024-02-06T06:28:00.321Z,72
2024-02-06T06:29:00.205Z,72
2024-02-06T06:30:03.764Z,72
2024-02-06T06:31:00.262Z,72
2024-02-06T06:32:00.343Z,72
2024-02-06T06:33:00.421Z,72
2024-02-06T06:34:00.508Z,72
2024-02-06T06:35:03.292Z,72
2024-02-06T06:36:00.375Z,72
2024-02-06T06:37:00.330Z,72
2024-02-06T06:38:00.488Z,72
2024-02-06T06:39:00.302Z,72
2024-02-06T06:40:03.914Z,72
2024-02-06T06:41:00.309Z,72
2024-02-06T06:42:00.450Z,72
2024-02-06T06:43:00.424Z,72
2024-02-06T06:44:00.459Z,72
2024-02-06T06:45:03.263Z,72
2024-02-06T06:46:00.472Z,72
2024-02-06T06:47:00.400Z,72
2024-02-06T06:48:00.611Z,72
2024-02-06T06:49:00.454Z,72
2024-02-06T06:50:03.835Z,72
2024-02-06T06:51:00.436Z,72
2024-02-06T06:52:00.576Z,72
2024-02-06T06:53:00.437Z,72
2024-02-06T06:54:00.555Z,72
2024-02-06T06:55:03.659Z,72
2024-02-06T06:56:00.500Z,72
2024-02-06T06:57:00.472Z,72
2024-02-06T06:58:00.548Z,72
2024-02-06T06:59:00.475Z,72
2024-02-06T07:00:04.325Z,72
2024-02-06T07:01:00.664Z,72
2024-02-06T07:02:00.756Z,72
2024-02-06T07:03:00.631Z,72
2024-02-06T07:04:00.680Z,72
2024-02-06T07:05:03.443Z,72
2024-02-06T07:06:00.682Z,72
2024-02-06T07:07:00.696Z,72
2024-02-06T07:08:00.722Z,72
2024-02-06T07:09:00.681Z,72
2024-02-06T07:10:04.257Z,72
2024-02-06T07:11:00.693Z,72
2024-02-06T07:12:00.696Z,72
2024-02-06T07:13:00.732Z,72
2024-02-06T07:14:00.723Z,72
2024-02-06T07:15:04.409Z,72
2024-02-06T07:16:00.910Z,72
2024-02-06T07:17:00.744Z,72
2024-02-06T07:18:00.875Z,72
2024-02-06T07:19:00.844Z,72
2024-02-06T07:20:04.191Z,72
2024-02-06T07:21:00.781Z,72
2024-02-06T07:22:02.842Z,72
2024-02-06T07:23:00.729Z,72
2024-02-06T07:24:00.834Z,72
2024-02-06T07:25:04.193Z,72
2024-02-06T07:26:03.661Z,73
2024-02-06T07:27:00.786Z,73
2024-02-06T07:28:00.896Z,73
2024-02-06T07:29:00.783Z,73
2024-02-06T07:30:05.170Z,73
2024-02-06T07:31:00.898Z,72
2024-02-06T07:32:00.911Z,72
2024-02-06T07:33:00.977Z,72
2024-02-06T07:34:01.419Z,73
2024-02-06T07:35:04.045Z,73
2024-02-06T07:36:00.956Z,73
2024-02-06T07:37:00.916Z,73
2024-02-06T07:38:03.204Z,73
2024-02-06T07:39:00.911Z,73
2024-02-06T07:40:04.275Z,73
2024-02-06T07:41:00.888Z,73
2024-02-06T07:42:00.994Z,73
2024-02-06T07:43:00.938Z,73
2024-02-06T07:44:01.032Z,73
2024-02-06T07:45:03.999Z,73
2024-02-06T07:46:01.110Z,73
2024-02-06T07:47:00.944Z,73
2024-02-06T07:48:01.335Z,73
2024-02-06T07:49:01.113Z,73
2024-02-06T07:50:04.379Z,73
2024-02-06T07:51:00.977Z,73
2024-02-06T07:52:01.184Z,73
2024-02-06T07:53:00.977Z,73
2024-02-06T07:54:01.107Z,73
2024-02-06T07:55:04.095Z,73
2024-02-06T07:56:01.105Z,73
2024-02-06T07:57:01.070Z,73
2024-02-06T07:58:01.157Z,73
2024-02-06T07:59:01.060Z,73
2024-02-06T08:00:04.653Z,73
2024-02-06T08:01:01.260Z,73
2024-02-06T08:02:01.238Z,73
2024-02-06T08:03:01.091Z,73
2024-02-06T08:04:05.213Z,73
2024-02-06T08:05:04.335Z,73
2024-02-06T08:06:01.376Z,73
2024-02-06T08:07:01.218Z,73
2024-02-06T08:08:01.453Z,73
2024-02-06T08:09:01.258Z,73
2024-02-06T08:10:06.151Z,73
2024-02-06T08:11:00.169Z,73
2024-02-06T08:12:02.381Z,73
2024-02-06T08:13:00.304Z,73
2024-02-06T08:14:00.312Z,73
2024-02-06T08:15:03.334Z,73
2024-02-06T08:16:00.367Z,73
2024-02-06T08:17:00.246Z,74
2024-02-06T08:18:00.434Z,74
2024-02-06T08:19:00.396Z,74
2024-02-06T08:20:04.066Z,74
2024-02-06T08:21:00.284Z,74
2024-02-06T08:22:00.537Z,74
2024-02-06T08:23:00.340Z,74
2024-02-06T08:24:00.449Z,73
2024-02-06T08:25:03.413Z,73
2024-02-06T08:26:00.460Z,73
2024-02-06T08:27:00.370Z,74
2024-02-06T08:28:01.025Z,74
2024-02-06T08:29:00.343Z,74
2024-02-06T08:30:03.642Z,74
2024-02-06T08:31:02.897Z,74
2024-02-06T08:32:01.524Z,73
2024-02-06T08:33:00.527Z,73
2024-02-06T08:34:00.614Z,73
2024-02-06T08:35:03.451Z,73
2024-02-06T08:36:00.710Z,73
2024-02-06T08:37:00.598Z,74
2024-02-06T08:38:00.622Z,74
2024-02-06T08:39:00.631Z,74
2024-02-06T08:40:04.046Z,74
2024-02-06T08:41:00.542Z,74
2024-02-06T08:42:00.566Z,74
2024-02-06T08:43:00.618Z,74
2024-02-06T08:44:01.757Z,74
2024-02-06T08:45:03.523Z,74
2024-02-06T08:46:00.687Z,74
2024-02-06T08:47:00.596Z,74
2024-02-06T08:48:00.738Z,74
2024-02-06T08:49:00.791Z,74
2024-02-06T08:50:04.062Z,74
2024-02-06T08:51:00.656Z,74
2024-02-06T08:52:00.809Z,74
2024-02-06T08:53:00.573Z,74
2024-02-06T08:54:01.021Z,74
2024-02-06T08:55:03.598Z,74
2024-02-06T08:56:00.726Z,74
2024-02-06T08:57:00.614Z,74
2024-02-06T08:58:00.728Z,74
2024-02-06T08:59:00.711Z,74
2024-02-06T09:00:04.209Z,74
2024-02-06T09:01:00.732Z,74
2024-02-06T09:02:00.901Z,74
2024-02-06T09:03:00.684Z,74
2024-02-06T09:04:04.586Z,74
2024-02-06T09:05:04.546Z,74
2024-02-06T09:06:01.029Z,74
2024-02-06T09:07:00.898Z,74
2024-02-06T09:08:00.876Z,74
2024-02-06T09:09:00.779Z,74
2024-02-06T09:10:04.013Z,74
2024-02-06T09:11:00.849Z,74
2024-02-06T09:12:00.898Z,74
2024-02-06T09:13:02.125Z,74
2024-02-06T09:14:01.957Z,74
2024-02-06T09:15:03.834Z,74
2024-02-06T09:16:01.982Z,74
2024-02-06T09:17:01.501Z,74
2024-02-06T09:18:00.964Z,74
2024-02-06T09:19:01.787Z,74
2024-02-06T09:20:04.691Z,74
2024-02-06T09:21:00.844Z,74
2024-02-06T09:22:00.953Z,74
2024-02-06T09:23:00.884Z,74
2024-02-06T09:24:00.946Z,74
2024-02-06T09:25:03.814Z,74
2024-02-06T09:26:00.971Z,74
2024-02-06T09:27:00.920Z,74
2024-02-06T09:28:01.056Z,74
2024-02-06T09:29:00.920Z,74
2024-02-06T09:30:04.383Z,74
2024-02-06T09:31:00.995Z,74
2024-02-06T09:32:01.099Z,74
2024-02-06T09:33:01.037Z,74
2024-02-06T09:34:01.166Z,74
2024-02-06T09:35:04.114Z,74
2024-02-06T09:36:01.123Z,74
2024-02-06T09:37:01.075Z,74
2024-02-06T09:38:01.110Z,74
2024-02-06T09:39:01.049Z,74
2024-02-06T09:40:04.485Z,74
2024-02-06T09:41:01.124Z,74
2024-02-06T09:42:01.159Z,74
2024-02-06T09:43:02.092Z,74
2024-02-06T09:44:01.265Z,74
2024-02-06T09:45:05.806Z,74
2024-02-06T09:46:01.322Z,74
2024-02-06T09:47:01.210Z,74
2024-02-06T09:48:01.323Z,74
2024-02-06T09:49:01.333Z,74
2024-02-06T09:50:04.670Z,74
2024-02-06T09:51:01.182Z,74
2024-02-06T09:52:01.417Z,74
2024-02-06T09:53:01.300Z,74
2024-02-06T09:54:01.263Z,74
2024-02-06T09:55:04.170Z,74
2024-02-06T09:56:00.316Z,74
2024-02-06T09:57:00.284Z,74
2024-02-06T09:58:00.528Z,74
2024-02-06T09:59:00.321Z,74
2024-02-06T10:00:07.585Z,74
2024-02-06T10:01:00.411Z,74
2024-02-06T10:02:34.912Z,74
2024-02-06T10:03:00.320Z,74
2024-02-06T10:04:02.265Z,74
2024-02-06T10:05:03.539Z,74
2024-02-06T10:06:00.495Z,74
2024-02-06T10:07:00.313Z,74
2024-02-06T10:08:00.425Z,74
2024-02-06T10:09:00.359Z,74
2024-02-06T10:10:05.283Z,74
2024-02-06T10:11:00.394Z,74
2024-02-06T10:12:00.451Z,74
2024-02-06T10:13:00.395Z,74
2024-02-06T10:14:00.438Z,74
2024-02-06T10:15:03.384Z,74
2024-02-06T10:16:00.494Z,74
2024-02-06T10:17:00.391Z,74
2024-02-06T10:18:00.486Z,74
2024-02-06T10:19:00.501Z,74
2024-02-06T10:20:04.073Z,74
2024-02-06T10:21:00.471Z,74
2024-02-06T10:22:00.587Z,74
2024-02-06T10:23:00.489Z,74
2024-02-06T10:24:00.618Z,74
2024-02-06T10:25:03.706Z,74
2024-02-06T10:26:00.618Z,74
2024-02-06T10:27:00.511Z,74
2024-02-06T10:28:00.635Z,74
2024-02-06T10:29:00.485Z,74
2024-02-06T10:30:04.562Z,74
2024-02-06T10:31:00.624Z,75
2024-02-06T10:32:00.750Z,75
2024-02-06T10:33:00.620Z,75
2024-02-06T10:34:00.797Z,75
2024-02-06T10:35:03.553Z,75
2024-02-06T10:36:00.712Z,75
2024-02-06T10:37:00.657Z,75
2024-02-06T10:38:00.795Z,75
2024-02-06T10:39:00.640Z,75
2024-02-06T10:40:05.554Z,75
2024-02-06T10:41:12.234Z,75
2024-02-06T10:44:00.926Z,75
2024-02-06T10:45:04.563Z,75
2024-02-06T10:46:01.053Z,75
2024-02-06T10:47:00.801Z,75
2024-02-06T10:48:00.978Z,74
2024-02-06T10:49:00.799Z,74
2024-02-06T10:50:04.550Z,74
2024-02-06T10:51:01.619Z,74
2024-02-06T10:52:04.731Z,74
2024-02-06T10:53:00.835Z,74
2024-02-06T10:54:00.914Z,74
2024-02-06T10:55:04.478Z,74
2024-02-06T10:56:00.986Z,74
2024-02-06T10:57:00.831Z,74
2024-02-06T10:58:00.893Z,74
2024-02-06T10:59:00.808Z,74
2024-02-06T11:00:05.439Z,74
2024-02-06T11:01:00.898Z,74
2024-02-06T11:02:00.963Z,74
2024-02-06T11:03:00.898Z,74
2024-02-06T11:05:08.902Z,74
2024-02-06T11:06:01.051Z,74
2024-02-06T11:07:00.916Z,74
2024-02-06T11:08:00.953Z,74
2024-02-06T11:09:00.862Z,74
2024-02-06T11:10:04.362Z,74
2024-02-06T11:11:00.929Z,74
2024-02-06T11:12:00.951Z,74
2024-02-06T11:13:00.946Z,74
2024-02-06T11:14:00.981Z,74
2024-02-06T11:15:04.090Z,74
2024-02-06T11:16:01.053Z,74
2024-02-06T11:17:00.957Z,74
2024-02-06T11:18:01.012Z,74
2024-02-06T11:19:01.130Z,74
2024-02-06T11:20:04.781Z,74
2024-02-06T11:21:01.017Z,74
2024-02-06T11:22:01.150Z,74
2024-02-06T11:23:01.069Z,74
2024-02-06T11:24:01.075Z,74
2024-02-06T11:25:04.096Z,74
2024-02-06T11:26:01.133Z,74
2024-02-06T11:27:01.015Z,74
2024-02-06T11:28:05.490Z,74
2024-02-06T11:29:01.038Z,74
2024-02-06T11:30:04.541Z,74
2024-02-06T11:31:01.393Z,73
2024-02-06T11:32:01.149Z,73
2024-02-06T11:33:01.093Z,73
2024-02-06T11:34:02.895Z,73
2024-02-06T11:35:04.081Z,73
2024-02-06T11:36:01.223Z,73
2024-02-06T11:37:01.095Z,73
2024-02-06T11:38:17.827Z,73
2024-02-06T11:39:01.106Z,73
2024-02-06T11:40:04.671Z,73
2024-02-06T11:41:01.236Z,73
2024-02-06T11:42:01.238Z,73
2024-02-06T11:43:01.222Z,73
2024-02-06T11:44:01.393Z,73
2024-02-06T11:45:04.691Z,73
2024-02-06T11:46:01.341Z,73
2024-02-06T11:47:01.235Z,73
2024-02-06T11:48:00.462Z,73
2024-02-06T11:49:00.296Z,73
2024-02-06T11:50:05.517Z,73
2024-02-06T11:51:00.261Z,73
2024-02-06T11:52:00.376Z,73
2024-02-06T11:53:00.273Z,73
2024-02-06T11:54:00.343Z,73
2024-02-06T11:55:03.194Z,73
2024-02-06T11:56:00.384Z,73
2024-02-06T11:57:00.304Z,73
2024-02-06T11:58:00.373Z,73
2024-02-06T11:59:00.282Z,73
2024-02-06T12:00:04.064Z,73
2024-02-06T12:01:00.459Z,73
2024-02-06T12:02:00.548Z,74
2024-02-06T12:03:00.377Z,74
2024-02-06T12:04:00.463Z,74
2024-02-06T12:05:04.538Z,74
2024-02-06T12:06:00.549Z,74
2024-02-06T12:07:00.460Z,74
2024-02-06T12:08:03.741Z,74
2024-02-06T12:09:00.683Z,74
2024-02-06T12:10:05.397Z,74
2024-02-06T12:11:00.540Z,74
2024-02-06T12:12:00.542Z,74
2024-02-06T12:13:00.465Z,74
2024-02-06T12:14:02.647Z,74
2024-02-06T12:15:03.398Z,74
2024-02-06T12:16:00.647Z,74
2024-02-06T12:17:00.601Z,74
2024-02-06T12:18:00.621Z,74
2024-02-06T12:19:00.619Z,74
2024-02-06T12:20:06.958Z,74
2024-02-06T12:21:00.601Z,74
2024-02-06T12:22:00.773Z,74
2024-02-06T12:23:00.682Z,74
2024-02-06T12:24:00.740Z,74
2024-02-06T12:25:03.563Z,74
2024-02-06T12:26:00.698Z,74
2024-02-06T12:27:00.596Z,73
2024-02-06T12:28:00.696Z,73
2024-02-06T12:29:00.603Z,73
2024-02-06T12:30:04.160Z,73
2024-02-06T12:31:00.748Z,73
2024-02-06T12:32:00.803Z,73
2024-02-06T12:33:00.920Z,73
2024-02-06T12:34:00.904Z,73
2024-02-06T12:35:03.626Z,73
2024-02-06T12:36:00.734Z,73
2024-02-06T12:37:00.671Z,73
2024-02-06T12:38:01.880Z,73
2024-02-06T12:39:00.636Z,73
2024-02-06T12:40:04.277Z,73
2024-02-06T12:41:00.765Z,73
2024-02-06T12:42:00.765Z,72
2024-02-06T12:43:00.791Z,72
2024-02-06T12:44:02.953Z,72
2024-02-06T12:45:04.357Z,72
2024-02-06T12:46:00.878Z,72
2024-02-06T12:47:00.724Z,72
2024-02-06T12:48:00.856Z,72
2024-02-06T12:49:00.877Z,72
2024-02-06T12:50:07.703Z,72
2024-02-06T12:51:00.936Z,72
2024-02-06T12:52:01.932Z,72
2024-02-06T12:53:01.084Z,72
2024-02-06T12:54:00.854Z,72
2024-02-06T12:55:04.071Z,72
2024-02-06T12:56:00.960Z,72
2024-02-06T12:57:00.845Z,72
2024-02-06T12:58:00.990Z,72
2024-02-06T12:59:09.328Z,72
2024-02-06T13:00:04.395Z,72
2024-02-06T13:01:01.149Z,72
2024-02-06T13:02:01.013Z,72
2024-02-06T13:03:01.414Z,72
2024-02-06T13:04:01.232Z,72
2024-02-06T13:05:04.007Z,72
2024-02-06T13:06:01.350Z,72
2024-02-06T13:07:01.051Z,72
2024-02-06T13:08:01.060Z,71
2024-02-06T13:09:00.957Z,71
2024-02-06T13:10:04.452Z,71
2024-02-06T13:11:01.111Z,71
2024-02-06T13:12:01.064Z,71
2024-02-06T13:13:01.030Z,71
2024-02-06T13:14:01.111Z,71
2024-02-06T13:15:04.090Z,71
2024-02-06T13:16:01.126Z,71
2024-02-06T13:17:01.087Z,71
2024-02-06T13:18:01.233Z,71
2024-02-06T13:19:01.527Z,71
2024-02-06T13:20:09.729Z,71
2024-02-06T13:21:01.139Z,71
2024-02-06T13:22:01.183Z,71
2024-02-06T13:23:01.103Z,71
2024-02-06T13:24:01.170Z,71
2024-02-06T13:25:04.383Z,71
2024-02-06T13:26:01.357Z,71
2024-02-06T13:27:01.136Z,71
2024-02-06T13:28:01.395Z,71
2024-02-06T13:29:01.241Z,71
2024-02-06T13:30:05.036Z,71
2024-02-06T13:31:01.186Z,71
2024-02-06T13:32:01.302Z,71
2024-02-06T13:33:01.195Z,71
2024-02-06T13:34:01.328Z,71
2024-02-06T13:35:04.209Z,71
2024-02-06T13:36:00.313Z,71
2024-02-06T13:37:00.218Z,71
2024-02-06T13:38:00.312Z,70
2024-02-06T13:39:00.223Z,70
2024-02-06T13:40:04.156Z,70
2024-02-06T13:41:00.309Z,70
2024-02-06T13:42:00.340Z,70
2024-02-06T13:43:00.512Z,70
2024-02-06T13:44:00.436Z,70
2024-02-06T13:45:03.228Z,70
2024-02-06T13:46:00.421Z,70
2024-02-06T13:47:00.297Z,70
2024-02-06T13:48:00.761Z,70
2024-02-06T13:49:00.454Z,70
2024-02-06T13:50:03.813Z,70
2024-02-06T13:51:00.390Z,70
2024-02-06T13:52:00.459Z,70
2024-02-06T13:53:02.922Z,70
2024-02-06T13:54:00.432Z,70
2024-02-06T13:55:03.399Z,70
2024-02-06T13:56:00.787Z,70
2024-02-06T13:57:00.414Z,70
2024-02-06T13:58:00.547Z,70
2024-02-06T13:59:00.404Z,70
2024-02-06T14:00:03.928Z,70
2024-02-06T14:01:00.593Z,70
2024-02-06T14:02:00.565Z,70
2024-02-06T14:03:00.511Z,70
2024-02-06T14:04:00.789Z,70
2024-02-06T14:05:03.670Z,70
2024-02-06T14:06:00.556Z,70
2024-02-06T14:07:00.610Z,70
2024-02-06T14:08:00.573Z,70
2024-02-06T14:09:00.505Z,70
2024-02-06T14:10:04.148Z,70
2024-02-06T14:11:00.498Z,70
2024-02-06T14:12:00.584Z,70
2024-02-06T14:13:00.605Z,70
2024-02-06T14:14:00.606Z,70
2024-02-06T14:15:03.567Z,70
2024-02-06T14:16:00.624Z,70
2024-02-06T14:17:00.580Z,70
2024-02-06T14:18:00.745Z,70
2024-02-06T14:19:00.630Z,70
2024-02-06T14:20:04.100Z,70
2024-02-06T14:21:00.577Z,70